sensor_id;sensor_type;location;lat;lon;timestamp;P1;durP1;ratioP1;P2;durP2;ratioP2
19891;SDS011;10108;50.142;8.724;2023-05-10T00:01:48;17.15;;;15.60;;
19891;SDS011;10108;50.142;8.724;2023-05-10T00:04:14;18.55;;;17.05;;
19891;SDS011;10108;50.142;8.724;2023-05-10T00:06:41;17.75;;;16.25;;
19891;SDS011;10108;50.142;8.724;2023-05-10T00:09:07;17.02;;;15.43;;
19891;SDS011;10108;50.142;8.724;2023-05-10T00:11:33;17.17;;;15.68;;
19891;SDS011;10108;50.142;8.724;2023-05-10T00:14:00;16.73;;;15.43;;
19891;SDS011;10108;50.142;8.724;2023-05-10T00:16:26;17.05;;;15.55;;
19891;SDS011;10108;50.142;8.724;2023-05-10T00:18:52;16.80;;;15.30;;
19891;SDS011;10108;50.142;8.724;2023-05-10T00:21:18;16.70;;;15.40;;
19891;SDS011;10108;50.142;8.724;2023-05-10T00:23:45;17.88;;;16.02;;
19891;SDS011;10108;50.142;8.724;2023-05-10T00:26:11;18.25;;;16.50;;
19891;SDS011;10108;50.142;8.724;2023-05-10T00:28:37;18.30;;;16.70;;
19891;SDS011;10108;50.142;8.724;2023-05-10T00:31:04;19.30;;;17.60;;
19891;SDS011;10108;50.142;8.724;2023-05-10T00:33:30;20.10;;;18.30;;
19891;SDS011;10108;50.142;8.724;2023-05-10T00:35:56;20.05;;;18.20;;
19891;SDS011;10108;50.142;8.724;2023-05-10T00:38:22;20.55;;;18.50;;
19891;SDS011;10108;50.142;8.724;2023-05-10T00:40:48;19.88;;;17.80;;
19891;SDS011;10108;50.142;8.724;2023-05-10T00:43:23;20.15;;;18.10;;
19891;SDS011;10108;50.142;8.724;2023-05-10T00:45:49;19.95;;;18.15;;
19891;SDS011;10108;50.142;8.724;2023-05-10T00:48:15;19.20;;;17.40;;
19891;SDS011;10108;50.142;8.724;2023-05-10T00:50:43;19.35;;;17.45;;
19891;SDS011;10108;50.142;8.724;2023-05-10T00:53:10;18.85;;;17.13;;
19891;SDS011;10108;50.142;8.724;2023-05-10T00:55:37;18.45;;;16.85;;
19891;SDS011;10108;50.142;8.724;2023-05-10T00:58:03;19.13;;;17.50;;
19891;SDS011;10108;50.142;8.724;2023-05-10T01:00:30;18.30;;;16.63;;
19891;SDS011;10108;50.142;8.724;2023-05-10T01:02:58;18.27;;;16.77;;
19891;SDS011;10108;50.142;8.724;2023-05-10T01:05:25;18.48;;;16.77;;
19891;SDS011;10108;50.142;8.724;2023-05-10T01:07:53;17.73;;;16.23;;
19891;SDS011;10108;50.142;8.724;2023-05-10T01:10:19;17.67;;;16.25;;
19891;SDS011;10108;50.142;8.724;2023-05-10T01:12:45;17.83;;;16.38;;
19891;SDS011;10108;50.142;8.724;2023-05-10T01:15:14;18.33;;;16.73;;
19891;SDS011;10108;50.142;8.724;2023-05-10T01:17:44;18.20;;;16.52;;
19891;SDS011;10108;50.142;8.724;2023-05-10T01:20:12;17.80;;;16.17;;
19891;SDS011;10108;50.142;8.724;2023-05-10T01:28:26;17.83;;;16.35;;
19891;SDS011;10108;50.142;8.724;2023-05-10T01:33:30;17.95;;;16.35;;
19891;SDS011;10108;50.142;8.724;2023-05-10T01:39:06;18.55;;;16.88;;
19891;SDS011;10108;50.142;8.724;2023-05-10T01:41:44;18.60;;;16.30;;
19891;SDS011;10108;50.142;8.724;2023-05-10T01:44:39;17.65;;;16.15;;
19891;SDS011;10108;50.142;8.724;2023-05-10T01:47:07;17.25;;;15.85;;
19891;SDS011;10108;50.142;8.724;2023-05-10T01:49:39;17.67;;;16.05;;
19891;SDS011;10108;50.142;8.724;2023-05-10T01:52:12;17.73;;;16.23;;
19891;SDS011;10108;50.142;8.724;2023-05-10T01:54:47;17.35;;;15.90;;
19891;SDS011;10108;50.142;8.724;2023-05-10T01:57:19;17.58;;;15.95;;
19891;SDS011;10108;50.142;8.724;2023-05-10T01:59:48;17.25;;;15.85;;
19891;SDS011;10108;50.142;8.724;2023-05-10T02:02:16;16.98;;;15.52;;
19891;SDS011;10108;50.142;8.724;2023-05-10T02:04:45;17.38;;;15.88;;
19891;SDS011;10108;50.142;8.724;2023-05-10T02:07:12;17.33;;;15.73;;
19891;SDS011;10108;50.142;8.724;2023-05-10T02:09:40;16.73;;;15.32;;
19891;SDS011;10108;50.142;8.724;2023-05-10T02:12:09;16.63;;;15.23;;
19891;SDS011;10108;50.142;8.724;2023-05-10T02:14:39;16.50;;;15.10;;
19891;SDS011;10108;50.142;8.724;2023-05-10T02:17:07;16.77;;;15.27;;
19891;SDS011;10108;50.142;8.724;2023-05-10T02:19:34;16.80;;;15.40;;
19891;SDS011;10108;50.142;8.724;2023-05-10T02:22:03;16.38;;;14.80;;
19891;SDS011;10108;50.142;8.724;2023-05-10T02:24:32;15.90;;;14.50;;
19891;SDS011;10108;50.142;8.724;2023-05-10T02:27:00;15.80;;;14.50;;
19891;SDS011;10108;50.142;8.724;2023-05-10T02:29:28;15.70;;;14.30;;
19891;SDS011;10108;50.142;8.724;2023-05-10T02:31:57;15.63;;;14.32;;
19891;SDS011;10108;50.142;8.724;2023-05-10T02:34:25;15.55;;;14.15;;
19891;SDS011;10108;50.142;8.724;2023-05-10T02:36:53;15.85;;;14.35;;
19891;SDS011;10108;50.142;8.724;2023-05-10T02:39:20;16.00;;;14.60;;
19891;SDS011;10108;50.142;8.724;2023-05-10T02:41:48;15.77;;;14.38;;
19891;SDS011;10108;50.142;8.724;2023-05-10T02:44:17;15.60;;;14.30;;
19891;SDS011;10108;50.142;8.724;2023-05-10T02:46:46;16.35;;;14.40;;
19891;SDS011;10108;50.142;8.724;2023-05-10T02:49:12;15.10;;;13.90;;
19891;SDS011;10108;50.142;8.724;2023-05-10T02:51:40;15.65;;;14.35;;
19891;SDS011;10108;50.142;8.724;2023-05-10T02:54:10;15.45;;;14.15;;
19891;SDS011;10108;50.142;8.724;2023-05-10T02:56:42;15.75;;;14.23;;
19891;SDS011;10108;50.142;8.724;2023-05-10T02:59:16;15.77;;;14.27;;
19891;SDS011;10108;50.142;8.724;2023-05-10T03:01:42;15.60;;;14.30;;
19891;SDS011;10108;50.142;8.724;2023-05-10T03:04:08;15.98;;;14.32;;
19891;SDS011;10108;50.142;8.724;2023-05-10T03:06:34;15.35;;;14.05;;
19891;SDS011;10108;50.142;8.724;2023-05-10T03:09:02;15.60;;;14.20;;
19891;SDS011;10108;50.142;8.724;2023-05-10T03:17:22;15.50;;;14.10;;
19891;SDS011;10108;50.142;8.724;2023-05-10T03:19:55;15.50;;;14.10;;
19891;SDS011;10108;50.142;8.724;2023-05-10T03:22:29;15.68;;;14.23;;
19891;SDS011;10108;50.142;8.724;2023-05-10T03:25:00;15.05;;;13.85;;
19891;SDS011;10108;50.142;8.724;2023-05-10T03:27:31;15.32;;;13.93;;
19891;SDS011;10108;50.142;8.724;2023-05-10T03:29:59;15.23;;;13.85;;
19891;SDS011;10108;50.142;8.724;2023-05-10T03:32:29;14.73;;;13.43;;
19891;SDS011;10108;50.142;8.724;2023-05-10T03:34:58;15.18;;;13.75;;
19891;SDS011;10108;50.142;8.724;2023-05-10T03:37:24;14.73;;;13.50;;
19891;SDS011;10108;50.142;8.724;2023-05-10T03:39:51;14.77;;;13.40;;
19891;SDS011;10108;50.142;8.724;2023-05-10T03:42:17;14.45;;;13.25;;
19891;SDS011;10108;50.142;8.724;2023-05-10T03:44:43;14.63;;;13.23;;
19891;SDS011;10108;50.142;8.724;2023-05-10T03:47:09;14.40;;;13.10;;
19891;SDS011;10108;50.142;8.724;2023-05-10T03:49:35;14.27;;;12.88;;
19891;SDS011;10108;50.142;8.724;2023-05-10T03:52:02;14.15;;;12.85;;
19891;SDS011;10108;50.142;8.724;2023-05-10T03:54:28;13.77;;;12.57;;
19891;SDS011;10108;50.142;8.724;2023-05-10T03:56:55;13.93;;;12.40;;
19891;SDS011;10108;50.142;8.724;2023-05-10T03:59:21;13.75;;;12.57;;
19891;SDS011;10108;50.142;8.724;2023-05-10T04:01:47;13.93;;;12.70;;
19891;SDS011;10108;50.142;8.724;2023-05-10T04:04:13;13.90;;;12.70;;
19891;SDS011;10108;50.142;8.724;2023-05-10T04:06:39;14.07;;;12.82;;
19891;SDS011;10108;50.142;8.724;2023-05-10T04:09:06;13.90;;;12.70;;
19891;SDS011;10108;50.142;8.724;2023-05-10T04:11:32;14.20;;;12.80;;
19891;SDS011;10108;50.142;8.724;2023-05-10T04:13:58;14.00;;;12.70;;
19891;SDS011;10108;50.142;8.724;2023-05-10T04:16:24;14.57;;;12.80;;
19891;SDS011;10108;50.142;8.724;2023-05-10T04:18:50;14.20;;;12.90;;
19891;SDS011;10108;50.142;8.724;2023-05-10T04:21:16;13.95;;;12.65;;
19891;SDS011;10108;50.142;8.724;2023-05-10T04:23:42;14.25;;;12.75;;
19891;SDS011;10108;50.142;8.724;2023-05-10T04:26:08;14.20;;;12.90;;
19891;SDS011;10108;50.142;8.724;2023-05-10T04:28:35;13.90;;;12.60;;
19891;SDS011;10108;50.142;8.724;2023-05-10T04:31:05;13.30;;;12.10;;
19891;SDS011;10108;50.142;8.724;2023-05-10T04:33:33;13.55;;;12.35;;
19891;SDS011;10108;50.142;8.724;2023-05-10T04:35:59;14.15;;;12.45;;
19891;SDS011;10108;50.142;8.724;2023-05-10T04:38:26;13.95;;;12.65;;
19891;SDS011;10108;50.142;8.724;2023-05-10T04:40:52;14.18;;;12.50;;
19891;SDS011;10108;50.142;8.724;2023-05-10T04:43:19;13.43;;;12.02;;
19891;SDS011;10108;50.142;8.724;2023-05-10T04:45:45;13.07;;;11.98;;
19891;SDS011;10108;50.142;8.724;2023-05-10T04:48:12;13.57;;;12.25;;
19891;SDS011;10108;50.142;8.724;2023-05-10T04:50:39;13.75;;;12.40;;
19891;SDS011;10108;50.142;8.724;2023-05-10T04:53:05;13.57;;;12.30;;
19891;SDS011;10108;50.142;8.724;2023-05-10T04:55:32;13.50;;;12.27;;
19891;SDS011;10108;50.142;8.724;2023-05-10T04:57:58;13.70;;;12.50;;
19891;SDS011;10108;50.142;8.724;2023-05-10T05:00:24;13.45;;;12.25;;
19891;SDS011;10108;50.142;8.724;2023-05-10T05:02:50;13.52;;;12.13;;
19891;SDS011;10108;50.142;8.724;2023-05-10T05:05:17;13.48;;;12.27;;
19891;SDS011;10108;50.142;8.724;2023-05-10T05:07:43;13.90;;;12.55;;
19891;SDS011;10108;50.142;8.724;2023-05-10T05:10:09;13.90;;;12.68;;
19891;SDS011;10108;50.142;8.724;2023-05-10T05:12:35;13.70;;;12.27;;
19891;SDS011;10108;50.142;8.724;2023-05-10T05:15:01;13.48;;;12.20;;
19891;SDS011;10108;50.142;8.724;2023-05-10T05:17:29;13.38;;;12.18;;
19891;SDS011;10108;50.142;8.724;2023-05-10T05:19:56;13.35;;;11.98;;
19891;SDS011;10108;50.142;8.724;2023-05-10T05:22:22;13.50;;;12.20;;
19891;SDS011;10108;50.142;8.724;2023-05-10T05:24:53;13.60;;;12.18;;
19891;SDS011;10108;50.142;8.724;2023-05-10T05:27:20;13.48;;;12.02;;
19891;SDS011;10108;50.142;8.724;2023-05-10T05:29:52;12.90;;;11.70;;
19891;SDS011;10108;50.142;8.724;2023-05-10T05:32:19;12.95;;;11.75;;
19891;SDS011;10108;50.142;8.724;2023-05-10T05:34:45;14.40;;;11.38;;
19891;SDS011;10108;50.142;8.724;2023-05-10T05:37:12;12.65;;;11.35;;
19891;SDS011;10108;50.142;8.724;2023-05-10T05:39:40;12.73;;;11.50;;
19891;SDS011;10108;50.142;8.724;2023-05-10T05:42:06;12.93;;;11.63;;
19891;SDS011;10108;50.142;8.724;2023-05-10T05:44:32;12.95;;;11.65;;
19891;SDS011;10108;50.142;8.724;2023-05-10T05:46:58;13.57;;;12.15;;
19891;SDS011;10108;50.142;8.724;2023-05-10T05:49:24;13.55;;;12.15;;
19891;SDS011;10108;50.142;8.724;2023-05-10T05:51:50;14.23;;;11.90;;
19891;SDS011;10108;50.142;8.724;2023-05-10T05:54:17;15.32;;;11.90;;
19891;SDS011;10108;50.142;8.724;2023-05-10T05:56:43;13.57;;;12.25;;
19891;SDS011;10108;50.142;8.724;2023-05-10T05:59:12;13.75;;;12.00;;
19891;SDS011;10108;50.142;8.724;2023-05-10T06:01:38;14.10;;;11.80;;
19891;SDS011;10108;50.142;8.724;2023-05-10T06:04:05;13.32;;;11.82;;
19891;SDS011;10108;50.142;8.724;2023-05-10T06:06:31;13.20;;;11.80;;
19891;SDS011;10108;50.142;8.724;2023-05-10T06:08:57;12.68;;;11.10;;
19891;SDS011;10108;50.142;8.724;2023-05-10T06:11:23;14.13;;;11.50;;
19891;SDS011;10108;50.142;8.724;2023-05-10T06:13:50;14.63;;;11.50;;
19891;SDS011;10108;50.142;8.724;2023-05-10T06:16:17;14.05;;;10.73;;
19891;SDS011;10108;50.142;8.724;2023-05-10T06:18:43;12.32;;;11.02;;
19891;SDS011;10108;50.142;8.724;2023-05-10T06:21:09;12.52;;;10.48;;
19891;SDS011;10108;50.142;8.724;2023-05-10T06:23:35;13.10;;;10.90;;
19891;SDS011;10108;50.142;8.724;2023-05-10T06:26:01;12.88;;;10.40;;
19891;SDS011;10108;50.142;8.724;2023-05-10T06:28:28;12.10;;;9.85;;
19891;SDS011;10108;50.142;8.724;2023-05-10T06:30:56;16.20;;;10.38;;
19891;SDS011;10108;50.142;8.724;2023-05-10T06:33:22;13.23;;;10.60;;
19891;SDS011;10108;50.142;8.724;2023-05-10T06:35:49;12.18;;;10.45;;
19891;SDS011;10108;50.142;8.724;2023-05-10T06:38:15;11.68;;;10.48;;
19891;SDS011;10108;50.142;8.724;2023-05-10T06:40:41;12.50;;;9.80;;
19891;SDS011;10108;50.142;8.724;2023-05-10T06:43:08;12.60;;;10.48;;
19891;SDS011;10108;50.142;8.724;2023-05-10T06:45:34;12.95;;;9.93;;
19891;SDS011;10108;50.142;8.724;2023-05-10T06:48:00;17.80;;;10.40;;
19891;SDS011;10108;50.142;8.724;2023-05-10T06:50:27;13.05;;;10.13;;
19891;SDS011;10108;50.142;8.724;2023-05-10T06:52:53;13.52;;;10.57;;
19891;SDS011;10108;50.142;8.724;2023-05-10T06:55:19;14.90;;;10.13;;
19891;SDS011;10108;50.142;8.724;2023-05-10T06:57:45;14.02;;;10.43;;
19891;SDS011;10108;50.142;8.724;2023-05-10T07:00:13;15.75;;;10.55;;
19891;SDS011;10108;50.142;8.724;2023-05-10T07:02:39;11.68;;;10.48;;
19891;SDS011;10108;50.142;8.724;2023-05-10T07:05:06;12.93;;;10.23;;
19891;SDS011;10108;50.142;8.724;2023-05-10T07:07:32;20.05;;;10.55;;
19891;SDS011;10108;50.142;8.724;2023-05-10T07:09:58;12.15;;;10.02;;
19891;SDS011;10108;50.142;8.724;2023-05-10T07:12:24;12.27;;;10.20;;
19891;SDS011;10108;50.142;8.724;2023-05-10T07:14:50;14.65;;;10.05;;
19891;SDS011;10108;50.142;8.724;2023-05-10T07:17:16;14.35;;;9.75;;
19891;SDS011;10108;50.142;8.724;2023-05-10T07:19:43;16.42;;;9.57;;
19891;SDS011;10108;50.142;8.724;2023-05-10T07:22:09;10.80;;;9.02;;
19891;SDS011;10108;50.142;8.724;2023-05-10T07:24:35;14.00;;;9.55;;
19891;SDS011;10108;50.142;8.724;2023-05-10T07:27:01;10.32;;;9.20;;
19891;SDS011;10108;50.142;8.724;2023-05-10T07:29:28;11.30;;;8.80;;
19891;SDS011;10108;50.142;8.724;2023-05-10T07:31:54;11.07;;;8.50;;
19891;SDS011;10108;50.142;8.724;2023-05-10T07:34:20;14.38;;;9.05;;
19891;SDS011;10108;50.142;8.724;2023-05-10T07:36:46;12.02;;;9.10;;
19891;SDS011;10108;50.142;8.724;2023-05-10T07:39:13;11.65;;;9.00;;
19891;SDS011;10108;50.142;8.724;2023-05-10T07:41:39;11.85;;;9.10;;
19891;SDS011;10108;50.142;8.724;2023-05-10T07:44:05;10.55;;;8.63;;
19891;SDS011;10108;50.142;8.724;2023-05-10T07:46:31;11.57;;;9.15;;
19891;SDS011;10108;50.142;8.724;2023-05-10T07:48:58;10.48;;;9.18;;
19891;SDS011;10108;50.142;8.724;2023-05-10T07:51:24;11.68;;;9.20;;
19891;SDS011;10108;50.142;8.724;2023-05-10T07:53:50;13.50;;;8.70;;
19891;SDS011;10108;50.142;8.724;2023-05-10T07:58:48;12.57;;;9.38;;
19891;SDS011;10108;50.142;8.724;2023-05-10T08:01:14;11.93;;;8.40;;
19891;SDS011;10108;50.142;8.724;2023-05-10T08:03:40;13.60;;;9.10;;
19891;SDS011;10108;50.142;8.724;2023-05-10T08:06:07;14.93;;;9.10;;
19891;SDS011;10108;50.142;8.724;2023-05-10T08:08:33;12.77;;;9.30;;
19891;SDS011;10108;50.142;8.724;2023-05-10T08:10:59;13.27;;;8.50;;
19891;SDS011;10108;50.142;8.724;2023-05-10T08:13:25;13.07;;;8.88;;
19891;SDS011;10108;50.142;8.724;2023-05-10T08:15:51;15.63;;;8.23;;
19891;SDS011;10108;50.142;8.724;2023-05-10T08:18:18;10.82;;;8.18;;
19891;SDS011;10108;50.142;8.724;2023-05-10T08:20:45;15.05;;;8.10;;
19891;SDS011;10108;50.142;8.724;2023-05-10T08:23:14;12.02;;;8.52;;
19891;SDS011;10108;50.142;8.724;2023-05-10T08:25:40;11.98;;;7.97;;
19891;SDS011;10108;50.142;8.724;2023-05-10T08:28:06;11.90;;;8.05;;
19891;SDS011;10108;50.142;8.724;2023-05-10T08:30:32;12.23;;;8.25;;
19891;SDS011;10108;50.142;8.724;2023-05-10T08:32:58;11.85;;;7.97;;
19891;SDS011;10108;50.142;8.724;2023-05-10T08:35:24;11.93;;;8.35;;
19891;SDS011;10108;50.142;8.724;2023-05-10T08:37:51;10.07;;;8.02;;
19891;SDS011;10108;50.142;8.724;2023-05-10T08:40:17;9.70;;;8.15;;
19891;SDS011;10108;50.142;8.724;2023-05-10T08:42:55;13.68;;;8.02;;
19891;SDS011;10108;50.142;8.724;2023-05-10T08:45:28;11.13;;;7.97;;
19891;SDS011;10108;50.142;8.724;2023-05-10T08:47:58;10.48;;;7.65;;
19891;SDS011;10108;50.142;8.724;2023-05-10T08:50:27;12.95;;;7.90;;
19891;SDS011;10108;50.142;8.724;2023-05-10T08:52:55;11.82;;;7.80;;
19891;SDS011;10108;50.142;8.724;2023-05-10T08:55:25;10.40;;;7.75;;
19891;SDS011;10108;50.142;8.724;2023-05-10T08:57:52;9.63;;;7.57;;
19891;SDS011;10108;50.142;8.724;2023-05-10T09:00:19;10.63;;;7.80;;
19891;SDS011;10108;50.142;8.724;2023-05-10T09:02:49;10.02;;;7.30;;
19891;SDS011;10108;50.142;8.724;2023-05-10T09:05:15;7.45;;;6.57;;
19891;SDS011;10108;50.142;8.724;2023-05-10T09:07:43;10.02;;;6.90;;
19891;SDS011;10108;50.142;8.724;2023-05-10T09:10:10;11.82;;;6.80;;
19891;SDS011;10108;50.142;8.724;2023-05-10T09:12:37;11.23;;;7.32;;
19891;SDS011;10108;50.142;8.724;2023-05-10T09:15:04;10.95;;;7.35;;
19891;SDS011;10108;50.142;8.724;2023-05-10T09:17:32;13.07;;;7.70;;
19891;SDS011;10108;50.142;8.724;2023-05-10T09:19:59;9.55;;;8.55;;
19891;SDS011;10108;50.142;8.724;2023-05-10T09:22:27;11.38;;;8.90;;
19891;SDS011;10108;50.142;8.724;2023-05-10T09:25:12;11.57;;;8.75;;
19891;SDS011;10108;50.142;8.724;2023-05-10T09:27:44;13.20;;;9.20;;
19891;SDS011;10108;50.142;8.724;2023-05-10T09:30:15;13.65;;;9.20;;
19891;SDS011;10108;50.142;8.724;2023-05-10T09:32:55;11.15;;;9.23;;
19891;SDS011;10108;50.142;8.724;2023-05-10T09:35:23;11.02;;;9.45;;
19891;SDS011;10108;50.142;8.724;2023-05-10T09:37:51;13.48;;;8.90;;
19891;SDS011;10108;50.142;8.724;2023-05-10T09:40:20;12.23;;;9.10;;
19891;SDS011;10108;50.142;8.724;2023-05-10T09:42:51;11.70;;;8.98;;
19891;SDS011;10108;50.142;8.724;2023-05-10T09:45:28;12.50;;;9.10;;
19891;SDS011;10108;50.142;8.724;2023-05-10T09:47:56;13.75;;;8.85;;
19891;SDS011;10108;50.142;8.724;2023-05-10T09:50:22;10.45;;;8.57;;
19891;SDS011;10108;50.142;8.724;2023-05-10T09:52:50;11.02;;;8.90;;
19891;SDS011;10108;50.142;8.724;2023-05-10T09:55:18;15.05;;;8.75;;
19891;SDS011;10108;50.142;8.724;2023-05-10T09:57:48;13.27;;;9.52;;
19891;SDS011;10108;50.142;8.724;2023-05-10T10:00:23;13.07;;;9.20;;
19891;SDS011;10108;50.142;8.724;2023-05-10T10:02:56;12.80;;;8.80;;
19891;SDS011;10108;50.142;8.724;2023-05-10T10:05:30;9.30;;;8.02;;
19891;SDS011;10108;50.142;8.724;2023-05-10T10:07:58;10.02;;;7.95;;
19891;SDS011;10108;50.142;8.724;2023-05-10T10:10:25;11.63;;;7.80;;
19891;SDS011;10108;50.142;8.724;2023-05-10T10:12:53;10.27;;;7.65;;
19891;SDS011;10108;50.142;8.724;2023-05-10T10:15:20;9.48;;;7.68;;
19891;SDS011;10108;50.142;8.724;2023-05-10T10:17:48;11.48;;;7.35;;
19891;SDS011;10108;50.142;8.724;2023-05-10T10:20:15;8.40;;;7.07;;
19891;SDS011;10108;50.142;8.724;2023-05-10T10:22:42;8.23;;;7.03;;
19891;SDS011;10108;50.142;8.724;2023-05-10T10:25:10;10.02;;;6.97;;
19891;SDS011;10108;50.142;8.724;2023-05-10T10:33:13;15.13;;;8.00;;
19891;SDS011;10108;50.142;8.724;2023-05-10T10:36:02;12.32;;;10.73;;
19891;SDS011;10108;50.142;8.724;2023-05-10T10:38:35;15.25;;;11.32;;
19891;SDS011;10108;50.142;8.724;2023-05-10T10:47:08;13.93;;;11.85;;
19891;SDS011;10108;50.142;8.724;2023-05-10T10:52:18;11.70;;;10.50;;
19891;SDS011;10108;50.142;8.724;2023-05-10T10:55:01;12.48;;;10.00;;
19891;SDS011;10108;50.142;8.724;2023-05-10T11:00:29;12.68;;;10.73;;
19891;SDS011;10108;50.142;8.724;2023-05-10T11:03:03;10.23;;;9.02;;
19891;SDS011;10108;50.142;8.724;2023-05-10T11:08:26;9.90;;;8.90;;
19891;SDS011;10108;50.142;8.724;2023-05-10T11:13:37;9.00;;;8.00;;
19891;SDS011;10108;50.142;8.724;2023-05-10T11:16:15;11.73;;;7.88;;
19891;SDS011;10108;50.142;8.724;2023-05-10T11:18:53;9.00;;;8.10;;
19891;SDS011;10108;50.142;8.724;2023-05-10T11:21:24;9.23;;;8.23;;
19891;SDS011;10108;50.142;8.724;2023-05-10T11:23:52;9.13;;;8.23;;
19891;SDS011;10108;50.142;8.724;2023-05-10T11:26:22;9.00;;;7.88;;
19891;SDS011;10108;50.142;8.724;2023-05-10T11:28:59;8.35;;;7.55;;
19891;SDS011;10108;50.142;8.724;2023-05-10T11:31:27;9.35;;;7.95;;
19891;SDS011;10108;50.142;8.724;2023-05-10T11:33:55;8.63;;;7.72;;
19891;SDS011;10108;50.142;8.724;2023-05-10T11:36:32;8.85;;;7.90;;
19891;SDS011;10108;50.142;8.724;2023-05-10T11:39:00;10.98;;;7.60;;
19891;SDS011;10108;50.142;8.724;2023-05-10T11:41:27;8.32;;;7.53;;
19891;SDS011;10108;50.142;8.724;2023-05-10T11:43:55;8.57;;;7.20;;
19891;SDS011;10108;50.142;8.724;2023-05-10T11:46:23;9.93;;;7.10;;
19891;SDS011;10108;50.142;8.724;2023-05-10T11:48:52;8.45;;;7.00;;
19891;SDS011;10108;50.142;8.724;2023-05-10T11:51:33;8.15;;;6.60;;
19891;SDS011;10108;50.142;8.724;2023-05-10T11:54:01;7.18;;;6.40;;
19891;SDS011;10108;50.142;8.724;2023-05-10T11:56:32;9.45;;;6.70;;
19891;SDS011;10108;50.142;8.724;2023-05-10T11:58:58;6.95;;;6.13;;
19891;SDS011;10108;50.142;8.724;2023-05-10T12:01:27;13.52;;;6.80;;
19891;SDS011;10108;50.142;8.724;2023-05-10T12:03:55;7.20;;;6.25;;
19891;SDS011;10108;50.142;8.724;2023-05-10T12:06:28;7.25;;;6.20;;
19891;SDS011;10108;50.142;8.724;2023-05-10T12:08:57;6.75;;;6.00;;
19891;SDS011;10108;50.142;8.724;2023-05-10T12:11:27;9.60;;;6.40;;
19891;SDS011;10108;50.142;8.724;2023-05-10T12:13:54;7.93;;;6.10;;
19891;SDS011;10108;50.142;8.724;2023-05-10T12:16:22;10.48;;;6.70;;
19891;SDS011;10108;50.142;8.724;2023-05-10T12:18:50;7.93;;;6.53;;
19891;SDS011;10108;50.142;8.724;2023-05-10T12:21:18;9.90;;;6.55;;
19891;SDS011;10108;50.142;8.724;2023-05-10T12:23:46;9.05;;;6.60;;
19891;SDS011;10108;50.142;8.724;2023-05-10T12:26:13;10.65;;;7.13;;
19891;SDS011;10108;50.142;8.724;2023-05-10T12:28:40;14.48;;;6.80;;
19891;SDS011;10108;50.142;8.724;2023-05-10T12:31:06;11.65;;;6.85;;
19891;SDS011;10108;50.142;8.724;2023-05-10T12:33:39;8.05;;;6.60;;
19891;SDS011;10108;50.142;8.724;2023-05-10T12:36:08;9.85;;;6.43;;
19891;SDS011;10108;50.142;8.724;2023-05-10T12:38:36;8.43;;;6.28;;
19891;SDS011;10108;50.142;8.724;2023-05-10T12:41:08;10.32;;;6.60;;
19891;SDS011;10108;50.142;8.724;2023-05-10T12:43:35;9.27;;;6.55;;
19891;SDS011;10108;50.142;8.724;2023-05-10T12:48:31;8.63;;;6.65;;
19891;SDS011;10108;50.142;8.724;2023-05-10T12:50:59;8.73;;;6.38;;
19891;SDS011;10108;50.142;8.724;2023-05-10T12:53:35;7.90;;;6.53;;
19891;SDS011;10108;50.142;8.724;2023-05-10T12:56:02;8.23;;;6.47;;
19891;SDS011;10108;50.142;8.724;2023-05-10T12:58:28;10.35;;;6.82;;
19891;SDS011;10108;50.142;8.724;2023-05-10T13:00:54;9.32;;;6.78;;
19891;SDS011;10108;50.142;8.724;2023-05-10T13:03:22;7.95;;;6.20;;
19891;SDS011;10108;50.142;8.724;2023-05-10T13:05:48;7.28;;;6.00;;
19891;SDS011;10108;50.142;8.724;2023-05-10T13:08:14;7.82;;;6.20;;
19891;SDS011;10108;50.142;8.724;2023-05-10T13:10:40;7.90;;;5.80;;
19891;SDS011;10108;50.142;8.724;2023-05-10T13:13:07;6.60;;;5.90;;
19891;SDS011;10108;50.142;8.724;2023-05-10T13:15:33;8.15;;;5.95;;
19891;SDS011;10108;50.142;8.724;2023-05-10T13:18:00;8.60;;;5.82;;
19891;SDS011;10108;50.142;8.724;2023-05-10T13:20:26;8.43;;;6.40;;
19891;SDS011;10108;50.142;8.724;2023-05-10T13:22:52;7.32;;;5.95;;
19891;SDS011;10108;50.142;8.724;2023-05-10T13:25:19;8.00;;;5.95;;
19891;SDS011;10108;50.142;8.724;2023-05-10T13:27:45;8.73;;;5.88;;
19891;SDS011;10108;50.142;8.724;2023-05-10T13:30:11;7.32;;;6.18;;
19891;SDS011;10108;50.142;8.724;2023-05-10T13:32:38;7.32;;;6.03;;
19891;SDS011;10108;50.142;8.724;2023-05-10T13:35:04;5.90;;;5.40;;
19891;SDS011;10108;50.142;8.724;2023-05-10T13:37:31;6.40;;;5.80;;
19891;SDS011;10108;50.142;8.724;2023-05-10T13:39:57;6.25;;;5.65;;
19891;SDS011;10108;50.142;8.724;2023-05-10T13:42:23;6.28;;;5.68;;
19891;SDS011;10108;50.142;8.724;2023-05-10T13:44:50;6.45;;;5.75;;
19891;SDS011;10108;50.142;8.724;2023-05-10T13:47:16;6.40;;;5.50;;
19891;SDS011;10108;50.142;8.724;2023-05-10T13:49:42;6.20;;;5.45;;
19891;SDS011;10108;50.142;8.724;2023-05-10T13:52:09;6.10;;;5.50;;
19891;SDS011;10108;50.142;8.724;2023-05-10T13:54:36;5.93;;;5.38;;
19891;SDS011;10108;50.142;8.724;2023-05-10T13:57:03;6.88;;;5.47;;
19891;SDS011;10108;50.142;8.724;2023-05-10T13:59:30;7.05;;;5.60;;
19891;SDS011;10108;50.142;8.724;2023-05-10T14:01:59;6.93;;;5.30;;
19891;SDS011;10108;50.142;8.724;2023-05-10T14:04:28;7.15;;;5.60;;
19891;SDS011;10108;50.142;8.724;2023-05-10T14:06:54;5.93;;;5.15;;
19891;SDS011;10108;50.142;8.724;2023-05-10T14:09:20;5.53;;;4.90;;
19891;SDS011;10108;50.142;8.724;2023-05-10T14:11:47;5.63;;;4.93;;
19891;SDS011;10108;50.142;8.724;2023-05-10T14:14:13;7.25;;;5.15;;
19891;SDS011;10108;50.142;8.724;2023-05-10T14:16:45;6.00;;;5.10;;
19891;SDS011;10108;50.142;8.724;2023-05-10T14:19:11;6.22;;;5.35;;
19891;SDS011;10108;50.142;8.724;2023-05-10T14:21:38;5.97;;;5.28;;
19891;SDS011;10108;50.142;8.724;2023-05-10T14:24:04;5.50;;;4.93;;
19891;SDS011;10108;50.142;8.724;2023-05-10T14:26:30;6.28;;;5.30;;
19891;SDS011;10108;50.142;8.724;2023-05-10T14:28:56;9.95;;;5.30;;
19891;SDS011;10108;50.142;8.724;2023-05-10T14:31:23;5.80;;;5.10;;
19891;SDS011;10108;50.142;8.724;2023-05-10T14:33:50;6.05;;;5.10;;
19891;SDS011;10108;50.142;8.724;2023-05-10T14:36:17;5.85;;;5.20;;
19891;SDS011;10108;50.142;8.724;2023-05-10T14:38:43;6.10;;;5.10;;
19891;SDS011;10108;50.142;8.724;2023-05-10T14:41:10;6.32;;;5.00;;
19891;SDS011;10108;50.142;8.724;2023-05-10T14:43:39;6.35;;;4.90;;
19891;SDS011;10108;50.142;8.724;2023-05-10T14:46:06;7.25;;;5.03;;
19891;SDS011;10108;50.142;8.724;2023-05-10T14:48:32;7.95;;;5.00;;
19891;SDS011;10108;50.142;8.724;2023-05-10T14:50:58;8.25;;;4.78;;
19891;SDS011;10108;50.142;8.724;2023-05-10T14:53:25;6.05;;;4.78;;
19891;SDS011;10108;50.142;8.724;2023-05-10T14:55:51;6.03;;;4.63;;
19891;SDS011;10108;50.142;8.724;2023-05-10T14:58:17;5.65;;;4.75;;
19891;SDS011;10108;50.142;8.724;2023-05-10T15:00:43;7.13;;;4.80;;
19891;SDS011;10108;50.142;8.724;2023-05-10T15:03:10;5.20;;;4.70;;
19891;SDS011;10108;50.142;8.724;2023-05-10T15:05:36;7.93;;;4.93;;
19891;SDS011;10108;50.142;8.724;2023-05-10T15:08:03;5.80;;;4.35;;
19891;SDS011;10108;50.142;8.724;2023-05-10T15:10:30;6.72;;;4.57;;
19891;SDS011;10108;50.142;8.724;2023-05-10T15:12:57;6.60;;;4.63;;
19891;SDS011;10108;50.142;8.724;2023-05-10T15:15:24;6.68;;;4.43;;
19891;SDS011;10108;50.142;8.724;2023-05-10T15:17:50;5.53;;;4.55;;
19891;SDS011;10108;50.142;8.724;2023-05-10T15:20:16;6.28;;;4.68;;